createdAt,value
2018-10-05T00:00:10.606Z,3.03
2018-10-05T00:02:39.052Z,3.10
2018-10-05T00:05:07.635Z,3.33
2018-10-05T00:07:36.100Z,2.90
2018-10-05T00:10:04.718Z,2.97
2018-10-05T00:12:34.848Z,3.73
2018-10-05T00:15:03.385Z,3.30
2018-10-05T00:17:32.109Z,3.43
2018-10-05T00:20:00.489Z,3.27
2018-10-05T00:22:28.912Z,3.27
2018-10-05T00:24:57.323Z,2.60
2018-10-05T00:27:25.794Z,2.80
2018-10-05T00:29:54.245Z,2.60
2018-10-05T00:32:22.917Z,2.67
2018-10-05T00:34:51.291Z,2.40
2018-10-05T00:37:19.822Z,2.53
2018-10-05T00:39:48.783Z,2.90
2018-10-05T00:42:18.382Z,2.73
2018-10-05T00:44:46.473Z,2.97
2018-10-05T00:47:14.600Z,2.80
2018-10-05T00:49:42.694Z,2.73
2018-10-05T00:52:11.112Z,2.67
2018-10-05T00:54:39.552Z,2.77
2018-10-05T00:57:08.056Z,2.80
2018-10-05T00:59:36.472Z,2.80
2018-10-05T01:02:04.899Z,2.63
2018-10-05T01:04:33.309Z,2.97
2018-10-05T01:07:01.812Z,3.57
2018-10-05T01:09:30.281Z,3.00
2018-10-05T01:11:58.713Z,3.03
2018-10-05T01:14:27.167Z,2.87
2018-10-05T01:16:55.616Z,3.53
2018-10-05T01:19:24.044Z,3.50
2018-10-05T01:21:52.148Z,2.47
2018-10-05T01:24:20.283Z,3.00
2018-10-05T01:26:48.896Z,2.80
2018-10-05T01:29:18.253Z,3.10
2018-10-05T01:31:46.721Z,2.80
2018-10-05T01:34:15.161Z,3.13
2018-10-05T01:36:43.596Z,2.90
2018-10-05T01:39:12.030Z,2.50
2018-10-05T01:41:40.659Z,2.70
2018-10-05T01:44:09.365Z,3.00
2018-10-05T01:46:37.785Z,3.07
2018-10-05T01:49:06.216Z,3.30
2018-10-05T01:51:36.766Z,2.70
2018-10-05T01:54:06.011Z,3.23
2018-10-05T01:56:36.345Z,3.17
2018-10-05T01:59:05.948Z,3.60
2018-10-05T02:01:34.428Z,3.63
2018-10-05T02:04:02.906Z,3.87
2018-10-05T02:06:31.370Z,4.13
2018-10-05T02:08:59.564Z,3.73
2018-10-05T02:11:28.026Z,4.53
2018-10-05T02:13:56.163Z,3.97
2018-10-05T02:16:24.581Z,4.27
2018-10-05T02:18:53.029Z,4.80
2018-10-05T02:21:21.937Z,3.90
2018-10-05T02:23:50.473Z,5.07
2018-10-05T02:26:18.896Z,4.07
2018-10-05T02:28:47.444Z,4.73
2018-10-05T02:31:16.277Z,3.63
2018-10-05T02:33:44.757Z,3.90
2018-10-05T02:36:13.254Z,4.33
2018-10-05T02:38:42.042Z,4.23
2018-10-05T02:41:10.486Z,4.23
2018-10-05T02:43:38.897Z,4.10
2018-10-05T02:46:07.317Z,3.67
2018-10-05T02:48:35.744Z,4.70
2018-10-05T02:51:04.177Z,4.03
2018-10-05T02:53:32.735Z,4.73
2018-10-05T02:56:01.148Z,4.10
2018-10-05T02:58:30.861Z,4.20
2018-10-05T03:01:10.846Z,4.37
2018-10-05T03:03:39.288Z,4.13
2018-10-05T03:06:07.993Z,3.90
2018-10-05T03:08:36.382Z,4.23
2018-10-05T03:11:04.810Z,4.17
2018-10-05T03:13:32.901Z,4.13
2018-10-05T03:16:01.020Z,4.57
2018-10-05T03:18:29.446Z,4.37
2018-10-05T03:24:19.960Z,4.50
2018-10-05T03:26:48.144Z,4.83
2018-10-05T03:29:16.928Z,4.57
2018-10-05T03:31:45.348Z,4.17
2018-10-05T03:34:13.769Z,4.43
2018-10-05T03:36:42.149Z,4.67
2018-10-05T03:39:10.278Z,5.23
2018-10-05T03:41:38.676Z,4.47
2018-10-05T03:44:06.889Z,4.90
2018-10-05T03:46:35.020Z,4.33
2018-10-05T03:49:03.440Z,4.03
2018-10-05T03:51:31.844Z,4.73
2018-10-05T03:54:00.128Z,4.30
2018-10-05T03:56:28.545Z,4.87
2018-10-05T03:58:56.941Z,5.50
2018-10-05T04:01:25.405Z,4.57
2018-10-05T04:03:54.777Z,4.13
2018-10-05T04:06:22.948Z,4.20
2018-10-05T04:08:51.492Z,4.80
2018-10-05T04:11:20.017Z,3.70
2018-10-05T04:13:49.457Z,4.07
2018-10-05T04:16:17.592Z,4.37
2018-10-05T04:18:46.033Z,4.77
2018-10-05T04:21:14.445Z,4.47
2018-10-05T04:23:43.038Z,3.93
2018-10-05T04:26:11.161Z,3.77
2018-10-05T04:28:39.549Z,4.03
2018-10-05T04:31:07.964Z,3.83
2018-10-05T04:33:36.384Z,3.63
2018-10-05T04:36:04.796Z,3.83
2018-10-05T04:38:33.176Z,4.07
2018-10-05T04:41:01.638Z,3.80
2018-10-05T04:43:30.070Z,4.10
2018-10-05T04:45:59.075Z,3.80
2018-10-05T04:48:27.769Z,3.60
2018-10-05T04:50:56.180Z,4.53
2018-10-05T04:53:24.809Z,3.67
2018-10-05T04:55:53.378Z,3.50
2018-10-05T04:58:21.769Z,3.87
2018-10-05T05:00:50.325Z,3.73
2018-10-05T05:03:18.733Z,3.60
2018-10-05T05:05:47.205Z,2.80
2018-10-05T05:08:15.607Z,3.10
2018-10-05T05:10:44.017Z,3.30
2018-10-05T05:13:12.116Z,3.50
2018-10-05T05:15:40.560Z,3.03
2018-10-05T05:18:08.699Z,2.97
2018-10-05T05:20:37.132Z,3.50
2018-10-05T05:23:05.536Z,2.40
2018-10-05T05:25:33.665Z,2.60
2018-10-05T05:28:02.129Z,3.13
2018-10-05T05:30:30.225Z,2.13
2018-10-05T05:32:58.628Z,2.13
2018-10-05T05:35:26.733Z,2.53
2018-10-05T05:37:55.213Z,2.73
2018-10-05T05:40:23.710Z,2.43
2018-10-05T05:42:51.761Z,2.23
2018-10-05T05:45:20.142Z,2.30
2018-10-05T05:47:48.540Z,2.80
2018-10-05T05:50:17.029Z,2.20
2018-10-05T05:52:45.143Z,2.23
2018-10-05T05:55:13.236Z,2.20
2018-10-05T05:57:41.696Z,1.90
2018-10-05T06:00:10.116Z,2.17
2018-10-05T06:02:38.541Z,1.60
2018-10-05T06:05:06.668Z,2.20
2018-10-05T06:07:35.157Z,2.67
2018-10-05T06:10:03.393Z,1.87
2018-10-05T06:12:31.528Z,2.17
2018-10-05T06:14:59.924Z,4.17
2018-10-05T06:17:28.364Z,6.20
2018-10-05T06:19:56.503Z,3.20
2018-10-05T06:22:25.166Z,2.60
2018-10-05T06:24:53.103Z,2.17
2018-10-05T06:27:21.509Z,1.50
2018-10-05T06:29:50.213Z,1.82
2018-10-05T06:32:18.626Z,1.80
2018-10-05T06:34:46.761Z,1.12
2018-10-05T06:37:15.285Z,1.50
2018-10-05T06:39:43.434Z,1.02
2018-10-05T06:42:11.970Z,1.30
2018-10-05T06:44:40.684Z,1.60
2018-10-05T06:47:09.100Z,1.42
2018-10-05T06:49:37.701Z,1.77
2018-10-05T06:52:06.116Z,2.65
2018-10-05T06:54:34.542Z,1.17
2018-10-05T06:57:02.953Z,1.10
2018-10-05T06:59:31.332Z,1.30
2018-10-05T07:01:59.783Z,2.00
2018-10-05T07:04:28.180Z,2.30
2018-10-05T07:06:56.592Z,2.10
2018-10-05T07:09:24.974Z,1.95
2018-10-05T07:11:53.406Z,2.02
2018-10-05T07:14:22.053Z,2.05
2018-10-05T07:16:50.589Z,2.02
2018-10-05T07:19:18.956Z,1.90
2018-10-05T07:21:47.481Z,1.90
2018-10-05T07:24:15.877Z,1.45
2018-10-05T07:26:44.322Z,1.47
2018-10-05T07:29:12.741Z,1.60
2018-10-05T07:31:41.173Z,1.50
2018-10-05T07:34:09.699Z,1.70
2018-10-05T07:36:38.137Z,1.65
2018-10-05T07:39:08.409Z,1.70
2018-10-05T07:41:36.833Z,1.30
2018-10-05T07:44:05.269Z,1.45
2018-10-05T07:46:33.705Z,1.42
2018-10-05T07:49:02.185Z,1.10
2018-10-05T07:51:30.598Z,1.25
2018-10-05T07:53:59.181Z,1.17
2018-10-05T07:56:27.609Z,0.93
2018-10-05T07:58:56.068Z,1.27
2018-10-05T08:01:24.498Z,1.00
2018-10-05T08:03:52.926Z,1.20
2018-10-05T08:06:21.313Z,1.35
2018-10-05T08:08:49.761Z,1.10
2018-10-05T08:11:18.157Z,1.00
2018-10-05T08:13:46.697Z,1.27
2018-10-05T08:16:15.097Z,1.30
2018-10-05T08:18:43.537Z,1.45
2018-10-05T08:21:11.974Z,1.12
2018-10-05T08:23:40.389Z,1.00
2018-10-05T08:26:08.803Z,1.00
2018-10-05T08:28:37.486Z,1.00
2018-10-05T08:31:05.960Z,0.80
2018-10-05T08:33:34.384Z,0.70
2018-10-05T08:36:02.769Z,0.82
2018-10-05T08:38:31.169Z,0.78
2018-10-05T08:40:59.579Z,0.80
2018-10-05T08:43:27.705Z,0.90
2018-10-05T08:45:56.225Z,0.85
2018-10-05T08:48:24.577Z,0.85
2018-10-05T08:50:52.956Z,0.90
2018-10-05T08:53:21.385Z,1.00
2018-10-05T08:55:49.972Z,1.50
2018-10-05T08:58:18.401Z,1.37
2018-10-05T09:00:46.924Z,1.10
2018-10-05T09:03:15.298Z,1.17
2018-10-05T09:05:43.758Z,1.30
2018-10-05T09:08:12.257Z,1.00
2018-10-05T09:10:40.684Z,1.00
2018-10-05T09:13:09.063Z,1.00
2018-10-05T09:15:37.184Z,0.75
2018-10-05T09:18:05.676Z,0.80
2018-10-05T09:20:34.103Z,0.82
2018-10-05T09:23:02.521Z,1.02
2018-10-05T09:25:30.957Z,1.00
2018-10-05T09:27:59.395Z,0.72
2018-10-05T09:30:27.825Z,0.78
2018-10-05T09:32:56.225Z,0.80
2018-10-05T09:35:24.665Z,0.80
2018-10-05T09:37:53.542Z,0.60
2018-10-05T09:40:21.604Z,0.50
2018-10-05T09:42:50.017Z,0.50
2018-10-05T09:45:18.918Z,0.70
2018-10-05T09:47:47.044Z,0.80
2018-10-05T09:50:15.723Z,0.50
2018-10-05T09:52:54.422Z,0.70
2018-10-05T09:55:22.850Z,0.57
2018-10-05T09:57:51.790Z,0.57
2018-10-05T10:00:25.529Z,0.60
2018-10-05T10:02:59.392Z,0.70
2018-10-05T10:05:27.976Z,0.70
2018-10-05T10:07:56.511Z,0.80
2018-10-05T10:10:24.921Z,0.93
2018-10-05T10:12:53.713Z,0.47
2018-10-05T10:15:22.278Z,0.88
2018-10-05T10:17:50.708Z,0.60
2018-10-05T10:20:19.173Z,0.78
2018-10-05T10:22:47.687Z,0.80
2018-10-05T10:25:16.067Z,0.65
2018-10-05T10:27:53.312Z,0.80
2018-10-05T10:30:21.722Z,0.80
2018-10-05T10:32:50.125Z,0.90
2018-10-05T10:35:18.548Z,1.40
2018-10-05T10:37:47.056Z,0.90
2018-10-05T10:40:15.492Z,0.78
2018-10-05T10:42:43.955Z,0.98
2018-10-05T10:45:12.333Z,0.70
2018-10-05T10:47:40.750Z,0.72
2018-10-05T10:50:09.218Z,0.88
2018-10-05T10:52:37.721Z,0.65
2018-10-05T10:55:06.443Z,0.80
2018-10-05T10:57:34.868Z,0.80
2018-10-05T11:00:03.340Z,0.60
2018-10-05T11:02:31.796Z,0.88
2018-10-05T11:05:00.218Z,1.02
2018-10-05T11:07:28.783Z,0.80
2018-10-05T11:09:57.165Z,0.80
2018-10-05T11:12:25.580Z,0.88
2018-10-05T11:14:53.982Z,0.80
2018-10-05T11:17:22.146Z,0.75
2018-10-05T11:19:50.276Z,0.80
2018-10-05T11:22:18.429Z,0.80
2018-10-05T11:24:46.867Z,0.85
2018-10-05T11:27:15.297Z,0.80
2018-10-05T11:29:43.817Z,0.95
2018-10-05T11:32:12.264Z,0.85
2018-10-05T11:34:40.708Z,0.85
2018-10-05T11:37:09.157Z,0.70
2018-10-05T11:39:37.849Z,0.90
2018-10-05T11:42:06.581Z,0.95
2018-10-05T11:44:35.022Z,0.70
2018-10-05T11:47:03.745Z,0.90
2018-10-05T11:49:32.180Z,1.50
2018-10-05T11:52:00.556Z,0.93
2018-10-05T11:54:30.046Z,1.82
2018-10-05T11:56:58.187Z,0.75
2018-10-05T11:59:26.726Z,0.90
2018-10-05T12:01:54.852Z,0.90
2018-10-05T12:04:23.912Z,0.90
2018-10-05T12:06:52.082Z,1.00
2018-10-05T12:09:20.200Z,0.80
2018-10-05T12:11:50.073Z,0.95
2018-10-05T12:14:18.500Z,0.85
2018-10-05T12:16:46.820Z,0.80
2018-10-05T12:19:14.985Z,0.68
2018-10-05T12:21:43.587Z,0.93
2018-10-05T12:24:12.206Z,0.80
2018-10-05T12:26:40.410Z,0.93
2018-10-05T12:29:09.580Z,0.98
2018-10-05T12:31:37.741Z,0.88
2018-10-05T12:34:05.918Z,0.90
2018-10-05T12:36:34.462Z,1.20
2018-10-05T12:39:02.626Z,1.10
2018-10-05T12:41:31.398Z,0.85
2018-10-05T12:43:59.849Z,0.72
2018-10-05T12:46:28.665Z,1.00
2018-10-05T12:48:57.120Z,1.10
2018-10-05T12:51:25.612Z,0.90
2018-10-05T12:53:54.085Z,1.37
2018-10-05T12:56:22.533Z,0.88
2018-10-05T12:58:51.109Z,0.88
2018-10-05T13:01:19.581Z,0.70
2018-10-05T13:03:48.096Z,0.80
2018-10-05T13:06:16.513Z,0.80
2018-10-05T13:08:46.569Z,0.80
2018-10-05T13:11:14.669Z,0.80
2018-10-05T13:13:43.117Z,0.88
2018-10-05T13:16:11.581Z,2.35
2018-10-05T13:18:40.744Z,0.93
2018-10-05T13:21:09.096Z,0.78
2018-10-05T13:23:37.348Z,0.90
2018-10-05T13:26:05.809Z,0.70
2018-10-05T13:28:34.347Z,0.80
2018-10-05T13:31:02.761Z,1.12
2018-10-05T13:33:31.358Z,0.90
2018-10-05T13:35:59.775Z,0.72
2018-10-05T13:38:28.218Z,1.05
2018-10-05T13:40:56.653Z,0.70
2018-10-05T13:43:24.970Z,0.98
2018-10-05T13:45:53.456Z,0.93
2018-10-05T13:48:22.570Z,0.88
2018-10-05T13:50:51.196Z,0.78
2018-10-05T13:53:20.300Z,0.70
2018-10-05T13:55:48.882Z,0.60
2018-10-05T13:58:17.344Z,0.90
2018-10-05T14:00:45.764Z,0.80
2018-10-05T14:03:14.172Z,0.90
2018-10-05T14:05:42.671Z,0.80
2018-10-05T14:08:11.108Z,0.80
2018-10-05T14:10:39.889Z,0.95
2018-10-05T14:13:08.478Z,0.90
2018-10-05T14:15:37.482Z,0.72
2018-10-05T14:18:05.992Z,1.02
2018-10-05T14:20:35.170Z,1.05
2018-10-05T14:23:04.137Z,1.22
2018-10-05T14:25:32.755Z,1.27
2018-10-05T14:28:01.272Z,1.30
2018-10-05T14:30:29.753Z,1.70
2018-10-05T14:32:58.218Z,1.55
2018-10-05T14:35:26.709Z,1.67
2018-10-05T14:37:55.146Z,2.00
2018-10-05T14:40:23.654Z,1.55
2018-10-05T14:42:52.812Z,1.45
2018-10-05T14:45:21.228Z,1.82
2018-10-05T14:47:50.155Z,1.80
2018-10-05T14:50:18.721Z,1.62
2018-10-05T14:52:47.572Z,1.47
2018-10-05T14:55:15.729Z,1.80
2018-10-05T14:57:44.122Z,1.25
2018-10-05T15:00:12.646Z,1.95
2018-10-05T15:02:41.257Z,2.08
2018-10-05T15:05:09.737Z,1.52
2018-10-05T15:07:39.110Z,1.75
2018-10-05T15:10:07.972Z,1.42
2018-10-05T15:12:37.018Z,1.40
2018-10-05T15:15:06.329Z,1.60
2018-10-05T15:17:34.773Z,2.02
2018-10-05T15:20:03.249Z,2.10
2018-10-05T15:22:31.768Z,1.75
2018-10-05T15:25:00.204Z,1.67
2018-10-05T15:27:28.302Z,1.72
2018-10-05T15:29:56.761Z,1.98
2018-10-05T15:32:25.594Z,2.12
2018-10-05T15:34:54.525Z,1.70
2018-10-05T15:37:22.955Z,1.70
2018-10-05T15:39:51.089Z,1.77
2018-10-05T15:42:20.037Z,1.80
2018-10-05T15:44:48.789Z,1.55
2018-10-05T15:47:17.886Z,1.30
2018-10-05T15:49:47.051Z,1.52
2018-10-05T15:52:16.026Z,1.75
2018-10-05T15:54:44.828Z,1.65
2018-10-05T15:57:13.238Z,1.47
2018-10-05T15:59:41.760Z,1.45
2018-10-05T16:02:10.521Z,1.40
2018-10-05T16:04:38.652Z,1.20
2018-10-05T16:07:07.644Z,1.05
2018-10-05T16:09:36.973Z,1.05
2018-10-05T16:12:05.760Z,1.00
2018-10-05T16:14:34.536Z,1.17
2018-10-05T16:17:03.005Z,1.22
2018-10-05T16:19:31.975Z,1.45
2018-10-05T16:22:00.421Z,1.05
2018-10-05T16:24:38.436Z,1.00
2018-10-05T16:27:07.365Z,1.25
2018-10-05T16:29:36.170Z,1.37
2018-10-05T16:32:05.776Z,1.10
2018-10-05T16:34:34.509Z,1.20
2018-10-05T16:37:03.315Z,1.40
2018-10-05T16:39:32.128Z,1.02
2018-10-05T16:42:00.640Z,1.15
2018-10-05T16:44:28.797Z,1.30
2018-10-05T16:46:57.273Z,1.55
2018-10-05T16:49:26.188Z,1.27
2018-10-05T16:51:54.629Z,1.10
2018-10-05T16:54:23.033Z,1.37
2018-10-05T16:56:51.617Z,1.50
2018-10-05T16:59:20.049Z,1.42
2018-10-05T17:01:48.572Z,1.40
2018-10-05T17:04:16.725Z,1.30
2018-10-05T17:06:45.561Z,1.35
2018-10-05T17:09:14.852Z,2.37
2018-10-05T17:11:44.602Z,1.72
2018-10-05T17:14:12.755Z,1.80
2018-10-05T17:16:41.413Z,1.25
2018-10-05T17:19:09.907Z,1.55
2018-10-05T17:21:38.325Z,2.47
2018-10-05T17:24:06.821Z,1.70
2018-10-05T17:26:35.260Z,1.52
2018-10-05T17:29:03.391Z,1.80
2018-10-05T17:31:31.552Z,1.32
2018-10-05T17:34:00.628Z,1.70
2018-10-05T17:36:29.749Z,5.37
2018-10-05T17:38:58.764Z,3.10
2018-10-05T17:41:27.214Z,2.27
2018-10-05T17:43:56.140Z,2.10
2018-10-05T17:46:24.619Z,1.62
2018-10-05T17:48:53.704Z,2.08
2018-10-05T17:51:22.507Z,1.98
2018-10-05T17:53:51.083Z,2.17
2018-10-05T17:56:19.510Z,1.92
2018-10-05T17:58:48.022Z,1.90
2018-10-05T18:01:16.554Z,2.33
2018-10-05T18:03:44.967Z,2.50
2018-10-05T18:06:13.428Z,1.98
2018-10-05T18:08:41.705Z,2.05
2018-10-05T18:11:10.141Z,1.77
2018-10-05T18:13:39.170Z,1.92
2018-10-05T18:16:07.581Z,2.45
2018-10-05T18:18:36.460Z,1.92
2018-10-05T18:21:04.898Z,2.12
2018-10-05T18:23:33.886Z,1.80
2018-10-05T18:26:02.294Z,2.00
2018-10-05T18:28:31.243Z,2.60
2018-10-05T18:31:00.768Z,3.40
2018-10-05T18:33:29.223Z,4.33
2018-10-05T18:35:57.728Z,4.10
2018-10-05T18:38:26.126Z,3.67
2018-10-05T18:40:54.513Z,4.12
2018-10-05T18:43:22.925Z,4.58
2018-10-05T18:45:51.317Z,3.60
2018-10-05T18:48:19.773Z,3.80
2018-10-05T18:50:48.214Z,5.83
2018-10-05T18:53:16.646Z,3.95
2018-10-05T18:55:44.743Z,3.77
2018-10-05T18:58:13.182Z,2.72
2018-10-05T19:00:41.590Z,3.55
2018-10-05T19:03:10.072Z,3.33
2018-10-05T19:05:38.476Z,3.42
2018-10-05T19:08:06.957Z,3.72
2018-10-05T19:10:35.357Z,3.02
2018-10-05T19:13:03.802Z,3.77
2018-10-05T19:15:32.213Z,3.15
2018-10-05T19:18:00.705Z,3.27
2018-10-05T19:20:29.126Z,3.22
2018-10-05T19:22:57.648Z,4.03
2018-10-05T19:25:26.045Z,4.20
2018-10-05T19:27:54.469Z,3.87
2018-10-05T19:30:22.564Z,3.50
2018-10-05T19:32:50.968Z,2.42
2018-10-05T19:35:19.081Z,2.42
2018-10-05T19:37:47.572Z,2.55
2018-10-05T19:40:16.001Z,2.25
2018-10-05T19:42:44.460Z,2.72
2018-10-05T19:45:13.156Z,2.80
2018-10-05T19:47:41.640Z,2.70
2018-10-05T19:50:10.049Z,2.77
2018-10-05T19:52:38.544Z,2.92
2018-10-05T19:55:07.021Z,2.10
2018-10-05T19:57:35.415Z,2.77
2018-10-05T20:00:03.909Z,2.10
2018-10-05T20:02:32.295Z,2.75
2018-10-05T20:05:00.732Z,2.27
2018-10-05T20:07:29.424Z,2.33
2018-10-05T20:09:57.909Z,2.42
2018-10-05T20:12:26.262Z,2.27
2018-10-05T20:14:54.824Z,2.40
2018-10-05T20:17:23.308Z,2.45
2018-10-05T20:19:52.085Z,2.45
2018-10-05T20:22:20.717Z,2.12
2018-10-05T20:24:48.888Z,2.17
2018-10-05T20:27:17.309Z,2.60
2018-10-05T20:29:45.741Z,2.10
2018-10-05T20:35:41.133Z,2.30
2018-10-05T20:38:09.562Z,1.90
2018-10-05T20:40:37.995Z,2.37
2018-10-05T20:43:06.131Z,2.80
2018-10-05T20:45:34.554Z,2.75
2018-10-05T20:48:02.792Z,2.50
2018-10-05T20:50:31.249Z,2.42
2018-10-05T20:52:59.712Z,2.30
2018-10-05T20:55:28.157Z,2.12
2018-10-05T20:57:56.695Z,2.00
2018-10-05T21:00:25.156Z,2.20
2018-10-05T21:02:53.560Z,2.98
2018-10-05T21:05:22.104Z,2.47
2018-10-05T21:07:50.780Z,2.90
2018-10-05T21:10:19.233Z,3.35
2018-10-05T21:12:47.737Z,3.25
2018-10-05T21:15:16.271Z,2.30
2018-10-05T21:17:44.633Z,2.10
2018-10-05T21:20:12.803Z,2.80
2018-10-05T21:22:41.228Z,2.00
2018-10-05T21:25:22.677Z,1.80
2018-10-05T21:27:51.065Z,1.72
2018-10-05T21:30:19.192Z,2.20
2018-10-05T21:32:47.673Z,1.60
2018-10-05T21:35:16.625Z,1.85
2018-10-05T21:37:45.392Z,1.80
2018-10-05T21:40:13.564Z,2.10
2018-10-05T21:42:45.589Z,1.67
2018-10-05T21:45:14.004Z,1.90
2018-10-05T21:47:42.109Z,1.87
2018-10-05T21:50:10.256Z,1.57
2018-10-05T21:52:38.765Z,1.82
2018-10-05T21:55:07.206Z,1.85
2018-10-05T21:57:35.643Z,1.55
2018-10-05T22:00:05.013Z,1.90
2018-10-05T22:02:36.217Z,2.00
2018-10-05T22:05:05.681Z,1.72
2018-10-05T22:07:34.190Z,1.95
2018-10-05T22:10:02.666Z,1.90
2018-10-05T22:12:31.456Z,1.85
2018-10-05T22:14:59.933Z,1.90
2018-10-05T22:17:28.617Z,1.85
2018-10-05T22:19:57.162Z,1.95
2018-10-05T22:22:25.696Z,1.40
2018-10-05T22:24:54.138Z,1.45
2018-10-05T22:27:22.629Z,1.80
2018-10-05T22:29:51.033Z,1.30
2018-10-05T22:32:19.449Z,2.10
2018-10-05T22:34:47.829Z,2.45
2018-10-05T22:37:16.266Z,3.37
2018-10-05T22:39:44.763Z,3.35
2018-10-05T22:42:12.877Z,2.77
2018-10-05T22:44:41.272Z,3.22
2018-10-05T22:47:09.756Z,2.62
2018-10-05T22:49:38.144Z,2.20
2018-10-05T22:52:07.224Z,2.40
2018-10-05T22:54:35.646Z,1.80
2018-10-05T22:57:04.177Z,1.85
2018-10-05T22:59:32.582Z,1.57
2018-10-05T23:02:01.001Z,1.17
2018-10-05T23:04:29.388Z,1.50
2018-10-05T23:06:57.823Z,1.07
2018-10-05T23:09:26.036Z,1.65
2018-10-05T23:11:54.468Z,1.30
2018-10-05T23:14:22.852Z,1.37
2018-10-05T23:16:51.267Z,1.30
2018-10-05T23:19:19.750Z,1.50
2018-10-05T23:21:48.186Z,1.20
2018-10-05T23:24:16.656Z,1.67
2018-10-05T23:26:45.141Z,1.37
2018-10-05T23:29:13.541Z,1.60
2018-10-05T23:31:41.949Z,1.50
2018-10-05T23:34:10.333Z,1.55
2018-10-05T23:36:38.491Z,1.57
2018-10-05T23:39:08.591Z,1.35
2018-10-05T23:41:37.009Z,1.25
2018-10-05T23:44:05.416Z,1.20
2018-10-05T23:46:33.884Z,1.40
2018-10-05T23:49:02.432Z,2.42
2018-10-05T23:51:30.877Z,1.97
2018-10-05T23:53:59.278Z,1.40
2018-10-05T23:56:27.721Z,1.45
2018-10-05T23:58:56.524Z,2.37
